sensor_id;sensor_type;location;lat;lon;timestamp;P1;durP1;ratioP1;P2;durP2;ratioP2
37001;SDS011;22913;51.910;8.374;2023-02-04T00:00:26;19.57;;;4.90;;
37001;SDS011;22913;51.910;8.374;2023-02-04T00:03:14;26.23;;;5.27;;
37001;SDS011;22913;51.910;8.374;2023-02-04T00:06:00;28.17;;;5.67;;
37001;SDS011;22913;51.910;8.374;2023-02-04T00:08:45;31.93;;;7.07;;
37001;SDS011;22913;51.910;8.374;2023-02-04T00:11:31;26.50;;;5.83;;
37001;SDS011;22913;51.910;8.374;2023-02-04T00:14:17;26.17;;;5.87;;
37001;SDS011;22913;51.910;8.374;2023-02-04T00:17:02;28.87;;;6.87;;
37001;SDS011;22913;51.910;8.374;2023-02-04T00:19:51;31.00;;;6.87;;
37001;SDS011;22913;51.910;8.374;2023-02-04T00:22:37;28.53;;;6.30;;
37001;SDS011;22913;51.910;8.374;2023-02-04T00:25:22;44.03;;;7.60;;
37001;SDS011;22913;51.910;8.374;2023-02-04T00:28:08;20.87;;;5.23;;
37001;SDS011;22913;51.910;8.374;2023-02-04T00:30:53;25.60;;;5.93;;
37001;SDS011;22913;51.910;8.374;2023-02-04T00:33:39;27.30;;;5.77;;
37001;SDS011;22913;51.910;8.374;2023-02-04T00:36:26;21.57;;;5.23;;
37001;SDS011;22913;51.910;8.374;2023-02-04T00:39:12;27.70;;;5.63;;
37001;SDS011;22913;51.910;8.374;2023-02-04T00:41:58;32.27;;;6.03;;
37001;SDS011;22913;51.910;8.374;2023-02-04T00:44:43;28.27;;;5.60;;
37001;SDS011;22913;51.910;8.374;2023-02-04T00:47:29;23.73;;;5.77;;
37001;SDS011;22913;51.910;8.374;2023-02-04T00:50:15;33.03;;;5.57;;
37001;SDS011;22913;51.910;8.374;2023-02-04T00:53:02;26.67;;;5.27;;
37001;SDS011;22913;51.910;8.374;2023-02-04T00:55:48;22.40;;;5.17;;
37001;SDS011;22913;51.910;8.374;2023-02-04T00:58:34;28.77;;;5.57;;
37001;SDS011;22913;51.910;8.374;2023-02-04T01:01:19;28.07;;;6.03;;
37001;SDS011;22913;51.910;8.374;2023-02-04T01:04:05;37.70;;;6.70;;
37001;SDS011;22913;51.910;8.374;2023-02-04T01:06:51;27.73;;;5.63;;
37001;SDS011;22913;51.910;8.374;2023-02-04T01:09:38;27.00;;;5.93;;
37001;SDS011;22913;51.910;8.374;2023-02-04T01:12:23;24.70;;;4.97;;
37001;SDS011;22913;51.910;8.374;2023-02-04T01:15:10;25.93;;;5.87;;
37001;SDS011;22913;51.910;8.374;2023-02-04T01:17:55;22.77;;;5.53;;
37001;SDS011;22913;51.910;8.374;2023-02-04T01:20:41;25.57;;;6.43;;
37001;SDS011;22913;51.910;8.374;2023-02-04T01:23:27;29.30;;;5.10;;
37001;SDS011;22913;51.910;8.374;2023-02-04T01:26:14;23.57;;;5.13;;
37001;SDS011;22913;51.910;8.374;2023-02-04T01:29:00;28.83;;;5.53;;
37001;SDS011;22913;51.910;8.374;2023-02-04T01:31:45;27.57;;;7.30;;
37001;SDS011;22913;51.910;8.374;2023-02-04T01:34:31;20.30;;;6.10;;
37001;SDS011;22913;51.910;8.374;2023-02-04T01:37:17;28.87;;;5.87;;
37001;SDS011;22913;51.910;8.374;2023-02-04T01:40:03;27.87;;;6.30;;
37001;SDS011;22913;51.910;8.374;2023-02-04T01:42:51;29.57;;;6.47;;
37001;SDS011;22913;51.910;8.374;2023-02-04T01:45:36;30.80;;;6.43;;
37001;SDS011;22913;51.910;8.374;2023-02-04T01:48:22;24.93;;;6.67;;
37001;SDS011;22913;51.910;8.374;2023-02-04T01:51:09;24.00;;;6.17;;
37001;SDS011;22913;51.910;8.374;2023-02-04T01:53:57;24.57;;;5.77;;
37001;SDS011;22913;51.910;8.374;2023-02-04T01:56:44;23.53;;;5.43;;
37001;SDS011;22913;51.910;8.374;2023-02-04T01:59:32;22.17;;;5.53;;
37001;SDS011;22913;51.910;8.374;2023-02-04T02:02:38;26.63;;;6.07;;
37001;SDS011;22913;51.910;8.374;2023-02-04T02:05:26;27.87;;;5.13;;
37001;SDS011;22913;51.910;8.374;2023-02-04T02:08:15;24.90;;;6.67;;
37001;SDS011;22913;51.910;8.374;2023-02-04T02:11:01;23.63;;;5.70;;
37001;SDS011;22913;51.910;8.374;2023-02-04T02:13:47;25.97;;;5.23;;
37001;SDS011;22913;51.910;8.374;2023-02-04T02:16:34;20.67;;;5.57;;
37001;SDS011;22913;51.910;8.374;2023-02-04T02:19:22;18.63;;;4.43;;
37001;SDS011;22913;51.910;8.374;2023-02-04T02:22:14;25.97;;;5.23;;
37001;SDS011;22913;51.910;8.374;2023-02-04T02:25:10;14.90;;;4.13;;
37001;SDS011;22913;51.910;8.374;2023-02-04T02:27:58;18.87;;;4.33;;
37001;SDS011;22913;51.910;8.374;2023-02-04T02:30:45;17.77;;;4.10;;
37001;SDS011;22913;51.910;8.374;2023-02-04T02:33:32;25.60;;;5.50;;
37001;SDS011;22913;51.910;8.374;2023-02-04T02:36:18;18.57;;;4.40;;
37001;SDS011;22913;51.910;8.374;2023-02-04T02:39:05;17.33;;;5.10;;
37001;SDS011;22913;51.910;8.374;2023-02-04T02:41:53;21.07;;;3.90;;
37001;SDS011;22913;51.910;8.374;2023-02-04T02:44:39;19.33;;;4.93;;
37001;SDS011;22913;51.910;8.374;2023-02-04T02:47:25;19.07;;;4.37;;
37001;SDS011;22913;51.910;8.374;2023-02-04T02:50:12;18.43;;;4.40;;
37001;SDS011;22913;51.910;8.374;2023-02-04T02:53:01;19.87;;;4.10;;
37001;SDS011;22913;51.910;8.374;2023-02-04T02:55:47;19.77;;;4.70;;
37001;SDS011;22913;51.910;8.374;2023-02-04T02:58:34;22.13;;;5.30;;
37001;SDS011;22913;51.910;8.374;2023-02-04T03:01:20;18.43;;;4.90;;
37001;SDS011;22913;51.910;8.374;2023-02-04T03:04:06;13.80;;;4.10;;
37001;SDS011;22913;51.910;8.374;2023-02-04T03:06:52;23.33;;;5.10;;
37001;SDS011;22913;51.910;8.374;2023-02-04T03:09:38;26.33;;;4.87;;
37001;SDS011;22913;51.910;8.374;2023-02-04T03:12:25;22.13;;;4.67;;
37001;SDS011;22913;51.910;8.374;2023-02-04T03:15:12;17.80;;;4.67;;
37001;SDS011;22913;51.910;8.374;2023-02-04T03:17:58;21.20;;;5.83;;
37001;SDS011;22913;51.910;8.374;2023-02-04T03:20:45;26.43;;;5.20;;
37001;SDS011;22913;51.910;8.374;2023-02-04T03:23:32;27.17;;;6.10;;
37001;SDS011;22913;51.910;8.374;2023-02-04T03:26:19;27.63;;;6.07;;
37001;SDS011;22913;51.910;8.374;2023-02-04T03:29:05;21.90;;;5.30;;
37001;SDS011;22913;51.910;8.374;2023-02-04T03:31:52;24.87;;;5.37;;
37001;SDS011;22913;51.910;8.374;2023-02-04T03:34:39;27.93;;;5.33;;
37001;SDS011;22913;51.910;8.374;2023-02-04T03:37:24;26.67;;;5.53;;
37001;SDS011;22913;51.910;8.374;2023-02-04T03:40:10;23.20;;;6.00;;
37001;SDS011;22913;51.910;8.374;2023-02-04T03:42:56;20.37;;;5.27;;
37001;SDS011;22913;51.910;8.374;2023-02-04T03:45:42;23.27;;;5.43;;
37001;SDS011;22913;51.910;8.374;2023-02-04T03:48:29;22.47;;;6.30;;
37001;SDS011;22913;51.910;8.374;2023-02-04T03:51:15;22.13;;;5.60;;
37001;SDS011;22913;51.910;8.374;2023-02-04T03:54:00;25.73;;;5.67;;
37001;SDS011;22913;51.910;8.374;2023-02-04T03:56:46;23.87;;;4.60;;
37001;SDS011;22913;51.910;8.374;2023-02-04T03:59:32;26.53;;;6.47;;
37001;SDS011;22913;51.910;8.374;2023-02-04T04:02:17;25.20;;;5.50;;
37001;SDS011;22913;51.910;8.374;2023-02-04T04:05:05;25.30;;;5.43;;
37001;SDS011;22913;51.910;8.374;2023-02-04T04:07:51;24.33;;;5.53;;
37001;SDS011;22913;51.910;8.374;2023-02-04T04:10:37;28.70;;;5.93;;
37001;SDS011;22913;51.910;8.374;2023-02-04T04:13:22;25.43;;;5.93;;
37001;SDS011;22913;51.910;8.374;2023-02-04T04:16:08;20.13;;;5.77;;
37001;SDS011;22913;51.910;8.374;2023-02-04T04:18:54;23.33;;;5.77;;
37001;SDS011;22913;51.910;8.374;2023-02-04T04:21:41;25.20;;;5.30;;
37001;SDS011;22913;51.910;8.374;2023-02-04T04:24:26;23.40;;;5.40;;
37001;SDS011;22913;51.910;8.374;2023-02-04T04:27:12;21.53;;;6.07;;
37001;SDS011;22913;51.910;8.374;2023-02-04T04:29:58;33.03;;;6.27;;
37001;SDS011;22913;51.910;8.374;2023-02-04T04:32:43;30.83;;;6.13;;
37001;SDS011;22913;51.910;8.374;2023-02-04T04:35:29;27.53;;;5.97;;
37001;SDS011;22913;51.910;8.374;2023-02-04T04:38:16;24.13;;;5.53;;
37001;SDS011;22913;51.910;8.374;2023-02-04T04:41:01;29.50;;;6.47;;
37001;SDS011;22913;51.910;8.374;2023-02-04T04:43:47;17.73;;;5.07;;
37001;SDS011;22913;51.910;8.374;2023-02-04T04:46:33;29.63;;;6.23;;
37001;SDS011;22913;51.910;8.374;2023-02-04T04:49:19;23.23;;;5.73;;
37001;SDS011;22913;51.910;8.374;2023-02-04T04:52:04;28.47;;;5.80;;
37001;SDS011;22913;51.910;8.374;2023-02-04T04:54:51;29.10;;;6.20;;
37001;SDS011;22913;51.910;8.374;2023-02-04T04:57:37;30.03;;;6.53;;
37001;SDS011;22913;51.910;8.374;2023-02-04T05:00:23;29.07;;;5.20;;
37001;SDS011;22913;51.910;8.374;2023-02-04T05:03:08;28.77;;;5.63;;
37001;SDS011;22913;51.910;8.374;2023-02-04T05:05:54;17.60;;;5.10;;
37001;SDS011;22913;51.910;8.374;2023-02-04T05:08:40;24.77;;;6.33;;
37001;SDS011;22913;51.910;8.374;2023-02-04T05:11:26;25.03;;;5.17;;
37001;SDS011;22913;51.910;8.374;2023-02-04T05:14:12;21.67;;;5.33;;
37001;SDS011;22913;51.910;8.374;2023-02-04T05:16:58;21.43;;;5.87;;
37001;SDS011;22913;51.910;8.374;2023-02-04T05:19:43;25.57;;;5.97;;
37001;SDS011;22913;51.910;8.374;2023-02-04T05:22:29;24.30;;;5.20;;
37001;SDS011;22913;51.910;8.374;2023-02-04T05:25:15;31.83;;;6.70;;
37001;SDS011;22913;51.910;8.374;2023-02-04T05:28:02;19.20;;;5.10;;
37001;SDS011;22913;51.910;8.374;2023-02-04T05:30:48;20.93;;;5.47;;
37001;SDS011;22913;51.910;8.374;2023-02-04T05:33:33;33.53;;;6.90;;
37001;SDS011;22913;51.910;8.374;2023-02-04T05:36:19;21.47;;;5.00;;
37001;SDS011;22913;51.910;8.374;2023-02-04T05:39:05;21.40;;;5.30;;
37001;SDS011;22913;51.910;8.374;2023-02-04T05:41:51;24.30;;;5.40;;
37001;SDS011;22913;51.910;8.374;2023-02-04T05:44:38;25.27;;;5.97;;
37001;SDS011;22913;51.910;8.374;2023-02-04T05:47:23;17.67;;;4.47;;
37001;SDS011;22913;51.910;8.374;2023-02-04T05:50:09;20.30;;;3.73;;
37001;SDS011;22913;51.910;8.374;2023-02-04T05:52:55;16.07;;;3.63;;
37001;SDS011;22913;51.910;8.374;2023-02-04T05:55:41;18.17;;;4.40;;
37001;SDS011;22913;51.910;8.374;2023-02-04T05:58:26;15.53;;;3.93;;
37001;SDS011;22913;51.910;8.374;2023-02-04T06:01:17;17.23;;;3.53;;
37001;SDS011;22913;51.910;8.374;2023-02-04T06:04:03;15.67;;;4.17;;
37001;SDS011;22913;51.910;8.374;2023-02-04T06:06:49;10.33;;;3.27;;
37001;SDS011;22913;51.910;8.374;2023-02-04T06:09:34;13.10;;;3.77;;
37001;SDS011;22913;51.910;8.374;2023-02-04T06:12:20;12.83;;;3.60;;
37001;SDS011;22913;51.910;8.374;2023-02-04T06:15:06;12.50;;;2.87;;
37001;SDS011;22913;51.910;8.374;2023-02-04T06:17:53;11.17;;;3.33;;
37001;SDS011;22913;51.910;8.374;2023-02-04T06:20:39;9.60;;;2.80;;
37001;SDS011;22913;51.910;8.374;2023-02-04T06:23:25;7.77;;;2.30;;
37001;SDS011;22913;51.910;8.374;2023-02-04T06:26:10;9.13;;;2.87;;
37001;SDS011;22913;51.910;8.374;2023-02-04T06:28:56;10.53;;;2.77;;
37001;SDS011;22913;51.910;8.374;2023-02-04T06:31:42;7.73;;;2.87;;
37001;SDS011;22913;51.910;8.374;2023-02-04T06:34:29;10.10;;;3.27;;
37001;SDS011;22913;51.910;8.374;2023-02-04T06:37:15;6.70;;;2.10;;
37001;SDS011;22913;51.910;8.374;2023-02-04T06:40:01;9.93;;;2.90;;
37001;SDS011;22913;51.910;8.374;2023-02-04T06:42:47;13.13;;;2.80;;
37001;SDS011;22913;51.910;8.374;2023-02-04T06:45:33;8.93;;;2.10;;
37001;SDS011;22913;51.910;8.374;2023-02-04T06:48:19;8.47;;;2.20;;
37001;SDS011;22913;51.910;8.374;2023-02-04T06:51:06;10.23;;;2.53;;
37001;SDS011;22913;51.910;8.374;2023-02-04T06:53:52;7.77;;;2.70;;
37001;SDS011;22913;51.910;8.374;2023-02-04T06:56:38;6.63;;;2.53;;
37001;SDS011;22913;51.910;8.374;2023-02-04T06:59:23;6.63;;;2.47;;
37001;SDS011;22913;51.910;8.374;2023-02-04T07:02:11;5.03;;;2.13;;
37001;SDS011;22913;51.910;8.374;2023-02-04T07:04:57;10.93;;;2.83;;
37001;SDS011;22913;51.910;8.374;2023-02-04T07:07:44;4.90;;;2.33;;
37001;SDS011;22913;51.910;8.374;2023-02-04T07:10:30;5.30;;;2.17;;
37001;SDS011;22913;51.910;8.374;2023-02-04T07:13:15;7.20;;;2.07;;
37001;SDS011;22913;51.910;8.374;2023-02-04T07:16:01;7.80;;;2.67;;
37001;SDS011;22913;51.910;8.374;2023-02-04T07:18:47;8.57;;;2.50;;
37001;SDS011;22913;51.910;8.374;2023-02-04T07:21:33;9.67;;;2.10;;
37001;SDS011;22913;51.910;8.374;2023-02-04T07:24:20;7.80;;;2.87;;
37001;SDS011;22913;51.910;8.374;2023-02-04T07:27:05;9.00;;;3.30;;
37001;SDS011;22913;51.910;8.374;2023-02-04T07:29:50;6.33;;;2.50;;
37001;SDS011;22913;51.910;8.374;2023-02-04T07:32:36;6.30;;;2.23;;
37001;SDS011;22913;51.910;8.374;2023-02-04T07:35:22;13.07;;;2.53;;
37001;SDS011;22913;51.910;8.374;2023-02-04T07:38:07;9.50;;;2.37;;
37001;SDS011;22913;51.910;8.374;2023-02-04T07:40:55;8.33;;;2.93;;
37001;SDS011;22913;51.910;8.374;2023-02-04T07:43:40;9.23;;;2.90;;
37001;SDS011;22913;51.910;8.374;2023-02-04T07:46:26;5.77;;;2.30;;
37001;SDS011;22913;51.910;8.374;2023-02-04T07:49:12;9.83;;;2.40;;
37001;SDS011;22913;51.910;8.374;2023-02-04T07:51:57;10.37;;;2.80;;
37001;SDS011;22913;51.910;8.374;2023-02-04T07:54:43;8.40;;;3.23;;
37001;SDS011;22913;51.910;8.374;2023-02-04T07:57:30;11.03;;;2.60;;
37001;SDS011;22913;51.910;8.374;2023-02-04T08:00:15;5.07;;;2.53;;
37001;SDS011;22913;51.910;8.374;2023-02-04T08:03:01;10.57;;;2.97;;
37001;SDS011;22913;51.910;8.374;2023-02-04T08:05:47;5.67;;;2.13;;
37001;SDS011;22913;51.910;8.374;2023-02-04T08:08:33;7.73;;;3.00;;
37001;SDS011;22913;51.910;8.374;2023-02-04T08:11:18;9.80;;;2.63;;
37001;SDS011;22913;51.910;8.374;2023-02-04T08:14:05;9.97;;;2.40;;
37001;SDS011;22913;51.910;8.374;2023-02-04T08:16:51;8.60;;;2.70;;
37001;SDS011;22913;51.910;8.374;2023-02-04T08:19:36;6.60;;;2.40;;
37001;SDS011;22913;51.910;8.374;2023-02-04T08:22:22;4.67;;;2.30;;
37001;SDS011;22913;51.910;8.374;2023-02-04T08:25:08;11.13;;;2.90;;
37001;SDS011;22913;51.910;8.374;2023-02-04T08:27:55;6.87;;;2.43;;
37001;SDS011;22913;51.910;8.374;2023-02-04T08:30:42;9.70;;;2.87;;
37001;SDS011;22913;51.910;8.374;2023-02-04T08:33:27;5.57;;;2.67;;
37001;SDS011;22913;51.910;8.374;2023-02-04T08:36:13;7.13;;;3.00;;
37001;SDS011;22913;51.910;8.374;2023-02-04T08:38:58;6.13;;;2.60;;
37001;SDS011;22913;51.910;8.374;2023-02-04T08:41:44;4.30;;;2.87;;
37001;SDS011;22913;51.910;8.374;2023-02-04T08:44:30;5.33;;;2.17;;
37001;SDS011;22913;51.910;8.374;2023-02-04T08:47:17;5.77;;;2.70;;
37001;SDS011;22913;51.910;8.374;2023-02-04T08:50:03;5.67;;;2.87;;
37001;SDS011;22913;51.910;8.374;2023-02-04T08:52:49;7.70;;;2.60;;
37001;SDS011;22913;51.910;8.374;2023-02-04T08:55:34;5.27;;;2.60;;
37001;SDS011;22913;51.910;8.374;2023-02-04T08:58:20;7.10;;;3.20;;
37001;SDS011;22913;51.910;8.374;2023-02-04T09:01:06;6.97;;;4.10;;
37001;SDS011;22913;51.910;8.374;2023-02-04T09:03:55;10.00;;;4.23;;
37001;SDS011;22913;51.910;8.374;2023-02-04T09:06:40;5.40;;;2.87;;
37001;SDS011;22913;51.910;8.374;2023-02-04T09:09:26;5.17;;;2.90;;
37001;SDS011;22913;51.910;8.374;2023-02-04T09:12:11;7.70;;;2.50;;
37001;SDS011;22913;51.910;8.374;2023-02-04T09:14:57;7.23;;;3.03;;
37001;SDS011;22913;51.910;8.374;2023-02-04T09:17:43;4.20;;;2.70;;
37001;SDS011;22913;51.910;8.374;2023-02-04T09:20:30;4.10;;;2.60;;
37001;SDS011;22913;51.910;8.374;2023-02-04T09:23:18;4.70;;;2.87;;
37001;SDS011;22913;51.910;8.374;2023-02-04T09:26:05;4.53;;;2.77;;
37001;SDS011;22913;51.910;8.374;2023-02-04T09:28:51;7.57;;;2.60;;
37001;SDS011;22913;51.910;8.374;2023-02-04T09:31:37;8.43;;;2.87;;
37001;SDS011;22913;51.910;8.374;2023-02-04T09:34:22;3.63;;;2.30;;
37001;SDS011;22913;51.910;8.374;2023-02-04T09:37:09;8.50;;;2.83;;
37001;SDS011;22913;51.910;8.374;2023-02-04T09:39:55;5.23;;;2.40;;
37001;SDS011;22913;51.910;8.374;2023-02-04T09:42:40;4.47;;;2.57;;
37001;SDS011;22913;51.910;8.374;2023-02-04T09:45:27;4.83;;;2.80;;
37001;SDS011;22913;51.910;8.374;2023-02-04T09:48:16;6.47;;;2.60;;
37001;SDS011;22913;51.910;8.374;2023-02-04T09:51:04;4.73;;;2.07;;
37001;SDS011;22913;51.910;8.374;2023-02-04T09:53:53;4.23;;;2.53;;
37001;SDS011;22913;51.910;8.374;2023-02-04T09:56:43;5.43;;;2.40;;
37001;SDS011;22913;51.910;8.374;2023-02-04T09:59:29;5.83;;;2.50;;
37001;SDS011;22913;51.910;8.374;2023-02-04T10:02:19;4.47;;;2.00;;
37001;SDS011;22913;51.910;8.374;2023-02-04T10:05:08;3.73;;;2.30;;
37001;SDS011;22913;51.910;8.374;2023-02-04T10:07:57;5.03;;;2.57;;
37001;SDS011;22913;51.910;8.374;2023-02-04T10:10:45;3.83;;;2.33;;
37001;SDS011;22913;51.910;8.374;2023-02-04T10:13:33;5.50;;;2.10;;
37001;SDS011;22913;51.910;8.374;2023-02-04T10:16:22;5.23;;;2.40;;
37001;SDS011;22913;51.910;8.374;2023-02-04T10:19:13;2.20;;;2.00;;
37001;SDS011;22913;51.910;8.374;2023-02-04T10:21:59;4.23;;;2.07;;
37001;SDS011;22913;51.910;8.374;2023-02-04T10:24:46;3.37;;;2.30;;
37001;SDS011;22913;51.910;8.374;2023-02-04T10:27:34;2.17;;;1.70;;
37001;SDS011;22913;51.910;8.374;2023-02-04T10:30:20;2.63;;;1.90;;
37001;SDS011;22913;51.910;8.374;2023-02-04T10:33:11;2.80;;;1.70;;
37001;SDS011;22913;51.910;8.374;2023-02-04T10:35:57;4.40;;;1.80;;
37001;SDS011;22913;51.910;8.374;2023-02-04T10:38:43;3.03;;;2.20;;
37001;SDS011;22913;51.910;8.374;2023-02-04T10:41:28;4.43;;;2.00;;
37001;SDS011;22913;51.910;8.374;2023-02-04T10:44:16;3.00;;;2.10;;
37001;SDS011;22913;51.910;8.374;2023-02-04T10:47:04;3.20;;;1.97;;
37001;SDS011;22913;51.910;8.374;2023-02-04T10:49:51;2.07;;;1.90;;
37001;SDS011;22913;51.910;8.374;2023-02-04T10:52:39;3.17;;;2.10;;
37001;SDS011;22913;51.910;8.374;2023-02-04T10:55:27;3.77;;;1.93;;
37001;SDS011;22913;51.910;8.374;2023-02-04T10:58:13;2.40;;;2.10;;
37001;SDS011;22913;51.910;8.374;2023-02-04T11:01:07;2.27;;;1.70;;
37001;SDS011;22913;51.910;8.374;2023-02-04T11:03:54;3.30;;;1.63;;
37001;SDS011;22913;51.910;8.374;2023-02-04T11:06:40;2.40;;;1.90;;
37001;SDS011;22913;51.910;8.374;2023-02-04T11:09:25;2.33;;;1.60;;
37001;SDS011;22913;51.910;8.374;2023-02-04T11:12:18;2.20;;;1.77;;
37001;SDS011;22913;51.910;8.374;2023-02-04T11:15:05;2.33;;;1.60;;
37001;SDS011;22913;51.910;8.374;2023-02-04T11:18:24;2.90;;;1.70;;
37001;SDS011;22913;51.910;8.374;2023-02-04T11:21:13;1.67;;;1.57;;
37001;SDS011;22913;51.910;8.374;2023-02-04T11:24:16;1.73;;;1.53;;
37001;SDS011;22913;51.910;8.374;2023-02-04T11:27:17;1.57;;;1.47;;
37001;SDS011;22913;51.910;8.374;2023-02-04T11:30:06;1.60;;;1.50;;
37001;SDS011;22913;51.910;8.374;2023-02-04T11:33:03;2.10;;;1.80;;
37001;SDS011;22913;51.910;8.374;2023-02-04T11:36:00;1.80;;;1.70;;
37001;SDS011;22913;51.910;8.374;2023-02-04T11:38:48;2.20;;;1.57;;
37001;SDS011;22913;51.910;8.374;2023-02-04T11:41:34;2.83;;;1.57;;
37001;SDS011;22913;51.910;8.374;2023-02-04T11:44:20;1.83;;;1.50;;
37001;SDS011;22913;51.910;8.374;2023-02-04T11:47:07;2.77;;;1.80;;
37001;SDS011;22913;51.910;8.374;2023-02-04T11:49:55;3.53;;;1.83;;
37001;SDS011;22913;51.910;8.374;2023-02-04T11:52:43;2.43;;;1.83;;
37001;SDS011;22913;51.910;8.374;2023-02-04T11:55:29;1.40;;;1.30;;
37001;SDS011;22913;51.910;8.374;2023-02-04T11:58:19;1.80;;;1.40;;
37001;SDS011;22913;51.910;8.374;2023-02-04T12:01:15;1.50;;;1.40;;
37001;SDS011;22913;51.910;8.374;2023-02-04T12:04:02;1.73;;;1.50;;
37001;SDS011;22913;51.910;8.374;2023-02-04T12:06:57;1.50;;;1.40;;
37001;SDS011;22913;51.910;8.374;2023-02-04T12:09:46;1.37;;;1.27;;
37001;SDS011;22913;51.910;8.374;2023-02-04T12:12:39;1.70;;;1.60;;
37001;SDS011;22913;51.910;8.374;2023-02-04T12:15:30;1.77;;;1.67;;
37001;SDS011;22913;51.910;8.374;2023-02-04T12:18:18;3.00;;;2.57;;
37001;SDS011;22913;51.910;8.374;2023-02-04T12:21:03;4.90;;;4.17;;
37001;SDS011;22913;51.910;8.374;2023-02-04T12:23:49;2.33;;;1.90;;
37001;SDS011;22913;51.910;8.374;2023-02-04T12:26:36;1.63;;;1.53;;
37001;SDS011;22913;51.910;8.374;2023-02-04T12:29:22;4.33;;;2.50;;
37001;SDS011;22913;51.910;8.374;2023-02-04T12:32:08;1.50;;;1.40;;
37001;SDS011;22913;51.910;8.374;2023-02-04T12:34:53;1.47;;;1.37;;
37001;SDS011;22913;51.910;8.374;2023-02-04T12:37:39;1.57;;;1.47;;
37001;SDS011;22913;51.910;8.374;2023-02-04T12:40:24;3.10;;;1.50;;
37001;SDS011;22913;51.910;8.374;2023-02-04T12:43:12;1.30;;;1.20;;
37001;SDS011;22913;51.910;8.374;2023-02-04T12:45:58;1.40;;;1.30;;
37001;SDS011;22913;51.910;8.374;2023-02-04T12:48:44;1.60;;;1.50;;
37001;SDS011;22913;51.910;8.374;2023-02-04T12:51:29;1.43;;;1.33;;
37001;SDS011;22913;51.910;8.374;2023-02-04T12:54:15;1.67;;;1.37;;
37001;SDS011;22913;51.910;8.374;2023-02-04T12:57:01;1.43;;;1.33;;
37001;SDS011;22913;51.910;8.374;2023-02-04T12:59:48;1.60;;;1.47;;
37001;SDS011;22913;51.910;8.374;2023-02-04T13:02:33;1.47;;;1.23;;
37001;SDS011;22913;51.910;8.374;2023-02-04T13:05:19;2.37;;;1.67;;
37001;SDS011;22913;51.910;8.374;2023-02-04T13:08:05;1.30;;;1.20;;
37001;SDS011;22913;51.910;8.374;2023-02-04T13:10:51;1.50;;;1.40;;
37001;SDS011;22913;51.910;8.374;2023-02-04T13:13:36;1.27;;;1.17;;
37001;SDS011;22913;51.910;8.374;2023-02-04T13:16:24;1.40;;;1.30;;
37001;SDS011;22913;51.910;8.374;2023-02-04T13:19:09;2.90;;;1.40;;
37001;SDS011;22913;51.910;8.374;2023-02-04T13:21:55;1.77;;;1.37;;
37001;SDS011;22913;51.910;8.374;2023-02-04T13:24:40;1.33;;;1.23;;
37001;SDS011;22913;51.910;8.374;2023-02-04T13:27:26;2.10;;;1.53;;
37001;SDS011;22913;51.910;8.374;2023-02-04T13:30:12;2.23;;;1.53;;
37001;SDS011;22913;51.910;8.374;2023-02-04T13:33:00;2.03;;;1.50;;
37001;SDS011;22913;51.910;8.374;2023-02-04T13:35:46;1.20;;;1.20;;
37001;SDS011;22913;51.910;8.374;2023-02-04T13:38:31;1.87;;;1.63;;
37001;SDS011;22913;51.910;8.374;2023-02-04T13:41:17;1.90;;;1.47;;
37001;SDS011;22913;51.910;8.374;2023-02-04T13:44:03;1.40;;;1.30;;
37001;SDS011;22913;51.910;8.374;2023-02-04T13:46:49;1.17;;;1.13;;
37001;SDS011;22913;51.910;8.374;2023-02-04T13:49:36;1.43;;;1.33;;
37001;SDS011;22913;51.910;8.374;2023-02-04T13:52:21;1.77;;;1.67;;
37001;SDS011;22913;51.910;8.374;2023-02-04T13:55:07;2.17;;;1.40;;
37001;SDS011;22913;51.910;8.374;2023-02-04T13:57:53;1.77;;;1.67;;
37001;SDS011;22913;51.910;8.374;2023-02-04T14:00:38;2.13;;;1.27;;
37001;SDS011;22913;51.910;8.374;2023-02-04T14:03:24;1.83;;;1.50;;
37001;SDS011;22913;51.910;8.374;2023-02-04T14:06:12;3.10;;;1.50;;
37001;SDS011;22913;51.910;8.374;2023-02-04T14:08:58;1.80;;;1.43;;
37001;SDS011;22913;51.910;8.374;2023-02-04T14:11:44;1.53;;;1.43;;
37001;SDS011;22913;51.910;8.374;2023-02-04T14:14:29;2.23;;;1.50;;
37001;SDS011;22913;51.910;8.374;2023-02-04T14:17:15;1.60;;;1.50;;
37001;SDS011;22913;51.910;8.374;2023-02-04T14:20:01;2.23;;;1.70;;
37001;SDS011;22913;51.910;8.374;2023-02-04T14:22:49;1.40;;;1.30;;
37001;SDS011;22913;51.910;8.374;2023-02-04T14:25:35;2.20;;;1.47;;
37001;SDS011;22913;51.910;8.374;2023-02-04T14:28:20;1.40;;;1.30;;
37001;SDS011;22913;51.910;8.374;2023-02-04T14:31:06;1.33;;;1.20;;
37001;SDS011;22913;51.910;8.374;2023-02-04T14:33:52;1.97;;;1.60;;
37001;SDS011;22913;51.910;8.374;2023-02-04T14:36:38;1.47;;;1.37;;
37001;SDS011;22913;51.910;8.374;2023-02-04T14:39:25;1.67;;;1.57;;
37001;SDS011;22913;51.910;8.374;2023-02-04T14:42:10;1.57;;;1.47;;
37001;SDS011;22913;51.910;8.374;2023-02-04T14:44:56;2.10;;;1.50;;
37001;SDS011;22913;51.910;8.374;2023-02-04T14:47:41;1.60;;;1.50;;
37001;SDS011;22913;51.910;8.374;2023-02-04T14:50:27;2.17;;;1.80;;
37001;SDS011;22913;51.910;8.374;2023-02-04T14:53:13;3.63;;;3.10;;
37001;SDS011;22913;51.910;8.374;2023-02-04T14:56:00;2.37;;;2.17;;
37001;SDS011;22913;51.910;8.374;2023-02-04T14:58:46;3.63;;;2.07;;
37001;SDS011;22913;51.910;8.374;2023-02-04T15:01:31;2.40;;;1.70;;
37001;SDS011;22913;51.910;8.374;2023-02-04T15:04:17;1.97;;;1.80;;
37001;SDS011;22913;51.910;8.374;2023-02-04T15:07:03;1.80;;;1.60;;
37001;SDS011;22913;51.910;8.374;2023-02-04T15:09:48;1.87;;;1.70;;
37001;SDS011;22913;51.910;8.374;2023-02-04T15:12:35;2.10;;;1.50;;
37001;SDS011;22913;51.910;8.374;2023-02-04T15:15:21;1.60;;;1.50;;
37001;SDS011;22913;51.910;8.374;2023-02-04T15:18:07;2.07;;;1.77;;
37001;SDS011;22913;51.910;8.374;2023-02-04T15:20:52;2.80;;;1.90;;
37001;SDS011;22913;51.910;8.374;2023-02-04T15:23:38;2.17;;;1.90;;
37001;SDS011;22913;51.910;8.374;2023-02-04T15:26:24;2.20;;;2.00;;
37001;SDS011;22913;51.910;8.374;2023-02-04T15:29:11;2.70;;;2.17;;
37001;SDS011;22913;51.910;8.374;2023-02-04T15:31:56;2.30;;;1.60;;
37001;SDS011;22913;51.910;8.374;2023-02-04T15:34:42;2.37;;;2.17;;
37001;SDS011;22913;51.910;8.374;2023-02-04T15:37:28;2.60;;;2.00;;
37001;SDS011;22913;51.910;8.374;2023-02-04T15:40:13;3.20;;;2.30;;
37001;SDS011;22913;51.910;8.374;2023-02-04T15:42:59;3.23;;;2.67;;
37001;SDS011;22913;51.910;8.374;2023-02-04T15:45:46;3.20;;;2.07;;
37001;SDS011;22913;51.910;8.374;2023-02-04T15:48:31;2.60;;;2.20;;
37001;SDS011;22913;51.910;8.374;2023-02-04T15:51:17;2.43;;;2.03;;
37001;SDS011;22913;51.910;8.374;2023-02-04T15:54:03;1.87;;;1.77;;
37001;SDS011;22913;51.910;8.374;2023-02-04T15:56:48;2.20;;;2.00;;
37001;SDS011;22913;51.910;8.374;2023-02-04T15:59:34;3.53;;;1.73;;
37001;SDS011;22913;51.910;8.374;2023-02-04T16:02:21;1.70;;;1.60;;
37001;SDS011;22913;51.910;8.374;2023-02-04T16:05:07;2.20;;;2.00;;
37001;SDS011;22913;51.910;8.374;2023-02-04T16:07:53;2.33;;;1.70;;
37001;SDS011;22913;51.910;8.374;2023-02-04T16:10:39;1.67;;;1.57;;
37001;SDS011;22913;51.910;8.374;2023-02-04T16:13:24;1.73;;;1.63;;
37001;SDS011;22913;51.910;8.374;2023-02-04T16:16:10;3.30;;;1.60;;
37001;SDS011;22913;51.910;8.374;2023-02-04T16:18:57;2.23;;;2.03;;
37001;SDS011;22913;51.910;8.374;2023-02-04T16:21:42;2.50;;;1.80;;
37001;SDS011;22913;51.910;8.374;2023-02-04T16:24:28;1.90;;;1.80;;
37001;SDS011;22913;51.910;8.374;2023-02-04T16:27:14;2.70;;;2.10;;
37001;SDS011;22913;51.910;8.374;2023-02-04T16:29:59;4.37;;;2.37;;
37001;SDS011;22913;51.910;8.374;2023-02-04T16:32:45;3.80;;;2.00;;
37001;SDS011;22913;51.910;8.374;2023-02-04T16:35:32;2.40;;;1.80;;
37001;SDS011;22913;51.910;8.374;2023-02-04T16:38:42;3.37;;;2.13;;